Time;durP1;ratioP1;P1;durP2;ratioP2;P2;SDS_P1;SDS_P2;PMS_P1;PMS_P2;Temp;Humidity;BMP_temperature;BMP_pressure;BME280_temperature;BME280_humidity;BME280_pressure;Samples;Min_cycle;Max_cycle;Signal;HPM_P1;HPM_P2
2022/12/18 00:00:41;;;;;;;84.70;31.80;;;-2.70;99.90;;;;;;5061777;28;20059;-67
2022/12/18 00:03:07;;;;;;;95.70;36.03;;;-2.70;99.90;;;;;;5063356;28;20045;-67
2022/12/18 00:05:33;;;;;;;95.22;35.53;;;-2.90;99.90;;;;;;5063623;28;20041;-67
2022/12/18 00:07:59;;;;;;;101.22;36.25;;;-2.90;99.90;;;;;;5071509;28;20039;-67
2022/12/18 00:10:25;;;;;;;92.40;32.38;;;-2.90;99.90;;;;;;5066341;28;20067;-67
2022/12/18 00:12:50;;;;;;;93.38;33.47;;;-2.80;99.90;;;;;;5066786;28;20056;-67
2022/12/18 00:15:16;;;;;;;98.95;36.17;;;-2.80;99.90;;;;;;5077449;28;20127;-67
2022/12/18 00:17:42;;;;;;;104.28;36.65;;;-2.90;99.90;;;;;;5084342;28;20037;-67
2022/12/18 00:20:08;;;;;;;97.35;35.22;;;-3.00;99.90;;;;;;5081661;28;20104;-67
2022/12/18 00:22:34;;;;;;;93.38;34.35;;;-2.90;99.90;;;;;;5073996;28;20044;-67
2022/12/18 00:24:59;;;;;;;100.40;35.67;;;-2.70;99.90;;;;;;5082542;28;20412;-67
2022/12/18 00:27:25;;;;;;;98.82;35.05;;;-2.70;99.90;;;;;;5067149;28;20515;-67
2022/12/18 00:29:51;;;;;;;96.03;34.83;;;-2.70;99.90;;;;;;5083744;28;20052;-67
2022/12/18 00:32:16;;;;;;;107.93;36.45;;;-2.70;99.90;;;;;;5066106;28;20048;-67
2022/12/18 00:34:42;;;;;;;111.75;38.83;;;-2.70;99.90;;;;;;5083004;28;20037;-67
2022/12/18 00:37:08;;;;;;;108.10;38.08;;;-2.70;99.90;;;;;;5065246;28;20059;-67
2022/12/18 00:39:33;;;;;;;103.40;36.30;;;-2.60;99.90;;;;;;5063775;28;20104;-67
2022/12/18 00:44:43;;;;;;;109.80;37.35;;;-2.70;99.90;;;;;;5069833;28;20076;-67
2022/12/18 00:47:09;;;;;;;103.20;39.38;;;-2.70;99.90;;;;;;5077442;28;20226;-67
2022/12/18 00:49:34;;;;;;;113.78;39.83;;;-2.70;99.90;;;;;;5076680;28;20087;-67
2022/12/18 00:52:00;;;;;;;109.13;40.03;;;-2.80;99.90;;;;;;5058361;28;20055;-67
2022/12/18 00:54:26;;;;;;;115.07;38.42;;;-2.90;99.90;;;;;;5082679;28;20040;-67
2022/12/18 00:56:51;;;;;;;112.75;41.22;;;-2.90;99.90;;;;;;5055550;28;20061;-67
2022/12/18 00:59:18;;;;;;;112.63;40.45;;;-2.90;99.90;;;;;;5075156;28;20057;-67
2022/12/18 01:01:44;;;;;;;108.38;39.08;;;-2.90;99.90;;;;;;5055213;28;20044;-67
2022/12/18 01:04:10;;;;;;;114.50;40.83;;;-2.90;99.90;;;;;;5054868;28;20465;-67
2022/12/18 01:06:36;;;;;;;113.15;40.97;;;-2.90;99.90;;;;;;5071589;28;20045;-67
2022/12/18 01:09:02;;;;;;;120.97;43.33;;;-3.00;99.90;;;;;;5052918;28;20056;-67
2022/12/18 01:11:28;;;;;;;120.30;41.05;;;-3.00;99.90;;;;;;5071124;28;20053;-67
2022/12/18 01:13:54;;;;;;;122.45;41.95;;;-3.10;99.90;;;;;;5055040;28;20102;-67
2022/12/18 01:16:20;;;;;;;117.50;41.70;;;-3.10;99.90;;;;;;5053275;28;20048;-67
2022/12/18 01:18:46;;;;;;;116.38;40.60;;;-3.10;99.90;;;;;;5055316;28;20053;-67
2022/12/18 01:21:15;;;;;;;109.68;40.30;;;-3.10;99.90;;;;;;5051934;28;20052;-67
2022/12/18 01:23:41;;;;;;;115.03;40.70;;;-3.10;99.90;;;;;;5078530;28;20056;-67
2022/12/18 01:26:09;;;;;;;116.85;43.65;;;-3.10;99.90;;;;;;5052905;28;20049;-67
2022/12/18 01:28:36;;;;;;;117.65;40.53;;;-3.10;99.90;;;;;;5059398;28;20053;-67
2022/12/18 01:31:29;;;;;;;120.70;42.03;;;-3.10;99.90;;;;;;5064904;28;20052;-67
2022/12/18 01:33:56;;;;;;;110.93;41.97;;;-3.10;99.90;;;;;;5059760;28;20041;-67
2022/12/18 01:36:24;;;;;;;109.45;39.08;;;-3.00;99.90;;;;;;5055510;28;20060;-67
2022/12/18 01:38:51;;;;;;;119.35;41.03;;;-2.90;99.90;;;;;;5071732;28;20063;-67
2022/12/18 01:41:23;;;;;;;115.65;41.58;;;-3.10;99.90;;;;;;5056882;28;20075;-67
2022/12/18 01:43:57;;;;;;;125.28;45.35;;;-3.20;99.90;;;;;;5058702;28;20048;-67
2022/12/18 01:46:24;;;;;;;120.60;42.40;;;-3.20;99.90;;;;;;5052353;28;20080;-67
2022/12/18 01:48:56;;;;;;;107.93;41.83;;;-3.30;99.90;;;;;;5049351;28;20083;-67
2022/12/18 01:51:23;;;;;;;115.07;43.00;;;-3.30;99.90;;;;;;5068923;28;20041;-67
2022/12/18 01:53:49;;;;;;;103.47;39.08;;;-3.20;99.90;;;;;;5049299;28;20056;-67
2022/12/18 01:56:18;;;;;;;112.95;41.28;;;-3.30;99.90;;;;;;5067623;28;20432;-67
2022/12/18 01:59:04;;;;;;;113.60;39.42;;;-3.30;99.90;;;;;;5049242;28;20059;-67
2022/12/18 02:01:32;;;;;;;112.20;39.90;;;-3.30;99.90;;;;;;5061200;28;20056;-67
2022/12/18 02:04:25;;;;;;;110.20;41.75;;;-3.30;99.90;;;;;;5074133;28;20045;-66
2022/12/18 02:07:04;;;;;;;104.50;38.83;;;-3.20;99.90;;;;;;5061280;28;20056;-67
2022/12/18 02:09:37;;;;;;;113.93;41.72;;;-3.20;99.90;;;;;;5066208;28;20109;-67
2022/12/18 02:12:20;;;;;;;108.45;39.20;;;-3.30;99.90;;;;;;5054938;28;20404;-67
2022/12/18 02:14:57;;;;;;;107.90;40.80;;;-3.30;99.90;;;;;;5076620;28;20029;-67
2022/12/18 02:17:43;;;;;;;104.28;40.53;;;-3.30;99.90;;;;;;5057075;28;20076;-67
2022/12/18 02:20:31;;;;;;;108.60;42.03;;;-3.30;99.90;;;;;;5078320;28;20519;-67
2022/12/18 02:23:15;;;;;;;102.68;36.97;;;-3.30;99.90;;;;;;5057230;28;20377;-67
2022/12/18 02:25:59;;;;;;;95.80;38.67;;;-3.30;99.90;;;;;;5054200;28;20048;-67
2022/12/18 02:28:30;;;;;;;95.97;36.22;;;-3.40;99.90;;;;;;5055639;28;20070;-67
2022/12/18 02:31:01;;;;;;;99.88;37.10;;;-3.50;99.90;;;;;;5054718;28;20040;-67
2022/12/18 02:33:28;;;;;;;98.72;38.20;;;-3.60;99.90;;;;;;5073790;28;20053;-67
2022/12/18 02:35:56;;;;;;;99.38;36.20;;;-3.70;99.90;;;;;;5052540;28;20040;-67
2022/12/18 02:38:23;;;;;;;95.22;38.42;;;-3.60;99.90;;;;;;5052128;28;20049;-67
2022/12/18 02:40:51;;;;;;;96.05;35.38;;;-3.60;99.90;;;;;;5060617;28;20053;-67
2022/12/18 02:43:16;;;;;;;99.18;37.10;;;-3.60;99.90;;;;;;5072547;28;20064;-67
2022/12/18 02:45:53;;;;;;;90.68;36.75;;;-3.60;99.90;;;;;;5063112;28;20045;-67
2022/12/18 02:48:25;;;;;;;96.45;37.90;;;-3.60;99.90;;;;;;5053251;28;20053;-67
2022/12/18 02:51:08;;;;;;;101.32;36.88;;;-3.60;99.90;;;;;;5073863;28;20047;-67
2022/12/18 02:53:39;;;;;;;85.95;33.80;;;-3.50;99.90;;;;;;5051266;28;20045;-67
2022/12/18 02:56:15;;;;;;;84.28;32.75;;;-3.50;99.90;;;;;;5053801;28;20408;-67
2022/12/18 02:58:46;;;;;;;87.88;34.38;;;-3.50;99.90;;;;;;5052387;28;20071;-67
2022/12/18 03:01:19;;;;;;;82.88;33.85;;;-3.50;99.90;;;;;;5051843;28;20048;-67
2022/12/18 03:03:55;;;;;;;81.10;32.35;;;-3.50;99.90;;;;;;5073261;28;20384;-67
2022/12/18 03:06:27;;;;;;;80.72;34.25;;;-3.60;99.90;;;;;;5058727;28;20048;-67
2022/12/18 03:08:58;;;;;;;85.03;34.22;;;-3.60;99.90;;;;;;5076431;28;20052;-67
2022/12/18 03:12:22;;;;;;;;;;;-3.50;99.90;;;;;;5050820;28;20052;-67
2022/12/18 03:14:12;;;;;;;75.07;33.25;;;-3.60;99.90;;;;;;5049815;28;19925;-67
2022/12/18 03:16:41;;;;;;;79.75;32.28;;;-3.60;99.90;;;;;;5064501;28;20057;-67
2022/12/18 03:19:15;;;;;;;78.55;31.30;;;-3.70;99.90;;;;;;5074222;28;20051;-67
2022/12/18 03:21:44;;;;;;;79.85;32.53;;;-3.60;99.90;;;;;;5055374;28;20049;-67
2022/12/18 03:24:11;;;;;;;74.32;32.75;;;-3.60;99.90;;;;;;5065298;28;20048;-67
2022/12/18 03:26:43;;;;;;;69.45;29.13;;;-3.80;99.90;;;;;;5065624;28;20131;-67
2022/12/18 03:29:27;;;;;;;72.70;30.33;;;-3.70;99.90;;;;;;5081625;28;20041;-67
2022/12/18 03:32:05;;;;;;;81.10;32.30;;;-3.60;99.90;;;;;;5060865;28;20048;-67
2022/12/18 03:34:34;;;;;;;80.28;31.88;;;-3.70;99.90;;;;;;5075381;28;20048;-67
2022/12/18 03:37:01;;;;;;;73.78;31.90;;;-3.90;99.90;;;;;;5078637;28;20040;-67
2022/12/18 03:39:28;;;;;;;77.32;34.00;;;-4.20;99.90;;;;;;5053370;28;20417;-67
2022/12/18 03:42:06;;;;;;;79.68;32.63;;;-4.30;99.90;;;;;;5060011;28;20037;-67
2022/12/18 03:44:36;;;;;;;76.45;31.50;;;-4.50;99.90;;;;;;5065482;28;20049;-67
2022/12/18 03:47:14;;;;;;;78.35;31.27;;;-4.70;99.90;;;;;;5065423;28;20052;-67
2022/12/18 03:49:45;;;;;;;75.05;31.25;;;-4.80;99.90;;;;;;5051742;28;20048;-67
2022/12/18 03:52:19;;;;;;;81.80;32.17;;;-5.10;99.90;;;;;;5054839;28;20501;-68
2022/12/18 03:54:46;;;;;;;64.45;28.50;;;-5.20;99.90;;;;;;5050207;28;20044;-67
2022/12/18 03:57:16;;;;;;;66.85;29.45;;;-5.20;99.90;;;;;;5054986;28;20526;-67
2022/12/18 03:59:45;;;;;;;65.78;28.98;;;-5.10;99.90;;;;;;5049238;28;20045;-67
2022/12/18 04:02:11;;;;;;;63.67;29.80;;;-5.00;99.90;;;;;;5045719;28;20049;-67
2022/12/18 04:04:39;;;;;;;58.97;28.10;;;-5.00;99.90;;;;;;5069912;28;20028;-67
2022/12/18 04:07:06;;;;;;;56.72;26.35;;;-4.90;99.90;;;;;;5065499;28;20064;-67
2022/12/18 04:09:33;;;;;;;59.05;27.42;;;-4.80;99.90;;;;;;5057670;28;20056;-67
2022/12/18 04:11:59;;;;;;;60.55;26.25;;;-4.90;99.90;;;;;;5045877;28;20100;-67
2022/12/18 04:14:25;;;;;;;56.75;25.02;;;-5.00;99.90;;;;;;5059092;28;20053;-67
2022/12/18 04:16:51;;;;;;;57.28;26.92;;;-5.00;99.90;;;;;;5063295;28;20460;-68
2022/12/18 04:19:16;;;;;;;59.35;27.70;;;-4.90;99.90;;;;;;5061523;28;20078;-67
2022/12/18 04:21:42;;;;;;;50.70;24.50;;;-4.90;99.90;;;;;;5066605;28;20070;-68
2022/12/18 04:24:08;;;;;;;48.42;24.55;;;-4.90;99.90;;;;;;5048754;28;20049;-67
2022/12/18 04:26:34;;;;;;;53.30;25.50;;;-4.90;99.90;;;;;;5083208;28;20062;-68
2022/12/18 04:29:00;;;;;;;56.00;26.42;;;-4.80;99.90;;;;;;5051634;28;20047;-68
2022/12/18 04:31:26;;;;;;;53.60;24.98;;;-4.70;99.90;;;;;;5065403;28;20044;-68
2022/12/18 04:33:52;;;;;;;56.83;24.52;;;-4.60;99.90;;;;;;5083719;28;20574;-68
2022/12/18 04:36:17;;;;;;;52.97;26.10;;;-4.60;99.90;;;;;;5065481;28;20053;-68
2022/12/18 04:38:43;;;;;;;49.70;24.48;;;-4.50;99.90;;;;;;5051709;28;20037;-69
2022/12/18 04:41:09;;;;;;;53.33;25.75;;;-4.50;99.90;;;;;;5081931;28;20075;-69
2022/12/18 04:43:34;;;;;;;54.38;24.63;;;-4.40;99.90;;;;;;5096843;28;20065;-69
2022/12/18 04:46:07;;;;;;;54.17;25.55;;;-4.50;99.90;;;;;;5084220;28;20036;-69
2022/12/18 04:48:34;;;;;;;51.83;23.45;;;-4.50;99.90;;;;;;5058925;28;20052;-69
2022/12/18 04:50:59;;;;;;;45.78;23.85;;;-4.60;99.90;;;;;;5058963;28;20048;-69
2022/12/18 04:53:25;;;;;;;50.38;24.48;;;-4.60;99.90;;;;;;5059980;28;20053;-69
2022/12/18 04:56:01;;;;;;;51.60;24.20;;;-4.70;99.90;;;;;;5059256;28;20032;-67
2022/12/18 04:58:27;;;;;;;42.10;21.17;;;-4.80;99.90;;;;;;5064418;28;20065;-67
2022/12/18 05:00:52;;;;;;;48.88;22.02;;;-4.90;99.90;;;;;;5064705;28;20037;-67
2022/12/18 05:03:18;;;;;;;43.60;20.90;;;-5.00;99.90;;;;;;5064613;28;20056;-67
2022/12/18 05:05:44;;;;;;;42.35;22.10;;;-5.00;99.90;;;;;;5066422;28;20143;-67
2022/12/18 05:08:09;;;;;;;43.05;21.77;;;-5.20;99.90;;;;;;5066069;28;20135;-68
2022/12/18 05:10:35;;;;;;;48.55;21.33;;;-5.40;99.90;;;;;;5064945;28;20041;-67
2022/12/18 05:13:01;;;;;;;52.40;22.00;;;-5.50;99.90;;;;;;5086354;28;20048;-69
2022/12/18 05:15:28;;;;;;;44.00;22.15;;;-5.80;99.90;;;;;;5061268;28;20694;-67
2022/12/18 05:17:53;;;;;;;50.88;22.63;;;-5.90;99.90;;;;;;5064455;28;20091;-68
2022/12/18 05:20:19;;;;;;;48.53;23.67;;;-5.90;99.90;;;;;;5061375;28;20808;-69
2022/12/18 05:22:45;;;;;;;48.63;22.80;;;-6.00;99.90;;;;;;5065689;28;20459;-68
2022/12/18 05:25:11;;;;;;;51.40;24.67;;;-6.10;99.90;;;;;;5081242;28;20044;-68
2022/12/18 05:27:36;;;;;;;49.65;25.35;;;-6.00;99.90;;;;;;5084052;28;20051;-68
2022/12/18 05:30:02;;;;;;;50.63;23.13;;;-6.00;99.90;;;;;;5062975;28;20069;-68
2022/12/18 05:32:28;;;;;;;52.17;24.15;;;-6.00;99.90;;;;;;5068174;28;20421;-69
2022/12/18 05:34:54;;;;;;;56.97;27.23;;;-6.00;99.90;;;;;;5061696;28;20048;-69
2022/12/18 05:37:20;;;;;;;57.03;26.88;;;-5.90;99.90;;;;;;5082782;28;20059;-69
2022/12/18 05:39:46;;;;;;;57.20;27.92;;;-5.90;99.90;;;;;;5064344;28;20137;-69
2022/12/18 05:42:11;;;;;;;54.83;27.85;;;-5.80;99.90;;;;;;5086095;28;20052;-70
2022/12/18 05:44:37;;;;;;;49.63;25.02;;;-5.70;99.90;;;;;;5078973;28;20047;-71
2022/12/18 05:47:04;;;;;;;53.17;26.70;;;-5.70;99.90;;;;;;5067824;28;20083;-70
2022/12/18 05:49:29;;;;;;;56.17;26.60;;;-5.60;99.90;;;;;;5061056;28;20104;-71
2022/12/18 05:51:55;;;;;;;52.72;24.80;;;-5.70;99.90;;;;;;5054287;28;20075;-71
2022/12/18 05:54:21;;;;;;;51.88;25.45;;;-5.70;99.90;;;;;;5063135;28;20040;-71
2022/12/18 05:56:47;;;;;;;60.90;31.58;;;-5.60;99.90;;;;;;5081270;28;20550;-71
2022/12/18 05:59:13;;;;;;;63.80;29.58;;;-5.60;99.90;;;;;;5064780;28;20100;-71
2022/12/18 06:01:38;;;;;;;51.30;24.95;;;-5.50;99.90;;;;;;5063496;28;20047;-71
2022/12/18 06:04:04;;;;;;;52.00;23.40;;;-5.50;99.90;;;;;;5081187;28;20044;-71
2022/12/18 06:06:30;;;;;;;46.67;23.33;;;-5.40;99.90;;;;;;5056830;28;20059;-71
2022/12/18 06:08:56;;;;;;;50.05;22.75;;;-5.30;99.90;;;;;;5079947;28;20040;-71
2022/12/18 06:11:25;;;;;;;48.00;23.75;;;-5.40;99.90;;;;;;5059626;28;20049;-70
2022/12/18 06:13:52;;;;;;;51.33;23.55;;;-5.30;99.90;;;;;;5058026;28;20055;-69
2022/12/18 06:16:17;;;;;;;49.67;25.15;;;-5.30;99.90;;;;;;5052949;28;20328;-69
2022/12/18 06:18:43;;;;;;;53.45;23.30;;;-5.30;99.90;;;;;;5075695;28;20041;-69
2022/12/18 06:21:09;;;;;;;44.95;22.80;;;-5.30;99.90;;;;;;5043475;28;20141;-69
2022/12/18 06:23:35;;;;;;;47.53;23.88;;;-5.30;99.90;;;;;;5056715;28;20049;-68
2022/12/18 06:26:09;;;;;;;56.42;25.58;;;-5.40;99.90;;;;;;5052793;28;20049;-68
2022/12/18 06:28:34;;;;;;;47.10;23.58;;;-5.40;99.90;;;;;;5060256;28;20443;-67
2022/12/18 06:31:00;;;;;;;45.05;23.35;;;-5.50;99.90;;;;;;5056211;28;20048;-67
2022/12/18 06:33:30;;;;;;;49.22;25.52;;;-5.60;99.90;;;;;;5074096;28;20044;-68
2022/12/18 06:36:00;;;;;;;;;;;-5.60;99.90;;;;;;5055624;28;20041;-68
2022/12/18 06:38:25;;;;;;;48.78;23.10;;;-5.70;99.90;;;;;;5066156;28;19921;-68
2022/12/18 06:40:51;;;;;;;49.67;24.02;;;-5.80;99.90;;;;;;5040020;28;20049;-68
2022/12/18 06:43:17;;;;;;;52.13;27.08;;;-5.90;99.90;;;;;;5066800;28;20052;-67
2022/12/18 06:45:42;;;;;;;53.55;32.17;;;-5.90;99.90;;;;;;5075558;28;20044;-67
2022/12/18 06:48:08;;;;;;;53.78;26.85;;;-5.90;99.90;;;;;;5063410;28;20055;-67
2022/12/18 06:50:34;;;;;;;43.17;24.55;;;-5.90;99.90;;;;;;5068488;28;20105;-67
2022/12/18 06:52:59;;;;;;;45.05;24.55;;;-5.90;99.90;;;;;;5053343;28;20056;-67
2022/12/18 06:55:25;;;;;;;48.38;24.58;;;-5.80;99.90;;;;;;5050260;28;20457;-67
2022/12/18 06:57:51;;;;;;;45.60;23.67;;;-5.80;99.90;;;;;;5071801;28;20051;-67
2022/12/18 07:00:17;;;;;;;45.78;22.38;;;-5.70;99.90;;;;;;5067905;28;20037;-67
2022/12/18 07:02:43;;;;;;;47.08;22.67;;;-5.70;99.90;;;;;;5052704;28;20041;-67
2022/12/18 07:05:09;;;;;;;47.78;23.42;;;-5.70;99.90;;;;;;5049999;28;20520;-67
2022/12/18 07:07:35;;;;;;;47.08;22.52;;;-5.60;99.90;;;;;;5049472;28;20062;-67
2022/12/18 07:10:00;;;;;;;41.55;23.88;;;-5.60;99.90;;;;;;5056985;28;20075;-67
2022/12/18 07:12:29;;;;;;;44.13;23.63;;;-5.60;99.90;;;;;;5068991;28;20048;-67
2022/12/18 07:14:55;;;;;;;45.65;24.40;;;-5.60;99.90;;;;;;5048501;28;20508;-67
2022/12/18 07:17:21;;;;;;;50.38;26.50;;;-5.60;99.90;;;;;;5048917;28;20036;-67
2022/12/18 07:19:46;;;;;;;47.42;25.42;;;-5.50;99.90;;;;;;5065740;28;20044;-67
2022/12/18 07:22:12;;;;;;;43.47;25.48;;;-5.50;99.90;;;;;;5047399;28;20072;-67
2022/12/18 07:24:38;;;;;;;45.65;24.13;;;-5.50;99.90;;;;;;5046840;28;20057;-69
2022/12/18 07:27:03;;;;;;;47.10;23.70;;;-5.60;99.90;;;;;;5047841;28;20076;-69
2022/12/18 07:29:29;;;;;;;45.78;24.13;;;-5.50;99.90;;;;;;5054352;28;20036;-68
2022/12/18 07:31:55;;;;;;;41.15;22.30;;;-5.50;99.90;;;;;;5082288;28;20528;-67
2022/12/18 07:34:20;;;;;;;44.78;22.50;;;-5.50;99.90;;;;;;5053889;28;20101;-67
2022/12/18 07:36:46;;;;;;;40.33;22.45;;;-5.50;99.90;;;;;;5049279;28;20041;-67
2022/12/18 07:39:12;;;;;;;39.28;20.88;;;-5.50;99.90;;;;;;5065575;28;20533;-67
2022/12/18 07:41:38;;;;;;;33.25;20.00;;;-5.50;99.90;;;;;;5084520;28;20048;-67
2022/12/18 07:44:04;;;;;;;43.47;21.70;;;-5.40;99.90;;;;;;5066083;28;20052;-67
2022/12/18 07:46:29;;;;;;;45.97;24.52;;;-5.50;99.90;;;;;;5052292;28;20059;-67
2022/12/18 07:48:55;;;;;;;38.38;22.08;;;-5.40;99.90;;;;;;5083830;28;20404;-67
2022/12/18 07:51:21;;;;;;;37.67;21.42;;;-5.40;99.90;;;;;;5083806;28;20044;-68
2022/12/18 07:53:47;;;;;;;39.05;21.05;;;-5.40;99.90;;;;;;5065883;28;20052;-67
2022/12/18 07:56:13;;;;;;;34.25;20.23;;;-5.30;99.90;;;;;;5078909;28;20082;-67
2022/12/18 07:58:39;;;;;;;38.70;19.95;;;-5.30;99.90;;;;;;5046124;28;20037;-67
2022/12/18 08:01:10;;;;;;;34.20;19.70;;;-5.30;99.90;;;;;;5046658;28;20052;-68
2022/12/18 08:03:37;;;;;;;35.85;19.95;;;-5.20;99.90;;;;;;5046787;28;20049;-67
2022/12/18 08:06:08;;;;;;;33.92;20.27;;;-5.20;99.90;;;;;;5045953;28;20051;-67
2022/12/18 08:08:34;;;;;;;38.28;19.92;;;-5.20;99.90;;;;;;5071816;28;20059;-67
2022/12/18 08:11:01;;;;;;;34.55;18.65;;;-5.10;99.90;;;;;;5062401;28;20049;-67
2022/12/18 08:13:27;;;;;;;32.55;18.80;;;-5.10;99.90;;;;;;5071453;28;20051;-67
2022/12/18 08:16:06;;;;;;;33.65;19.80;;;-5.10;99.90;;;;;;5052310;28;20060;-68
2022/12/18 08:18:34;;;;;;;35.67;20.97;;;-5.10;99.90;;;;;;5065983;28;20063;-68
2022/12/18 08:21:11;;;;;;;32.67;19.80;;;-5.20;99.90;;;;;;5064804;28;20049;-69
2022/12/18 08:23:37;;;;;;;31.75;18.00;;;-5.20;99.90;;;;;;5065080;28;20091;-69
2022/12/18 08:26:02;;;;;;;31.98;20.10;;;-5.20;99.90;;;;;;5062320;28;20053;-69
2022/12/18 08:28:28;;;;;;;36.20;18.73;;;-5.20;99.90;;;;;;5042899;28;20112;-69
2022/12/18 08:30:54;;;;;;;37.15;20.10;;;-5.20;99.90;;;;;;5060542;28;20041;-68
2022/12/18 08:33:19;;;;;;;34.05;19.63;;;-5.20;99.90;;;;;;5066090;28;20044;-68
2022/12/18 08:35:45;;;;;;;49.72;25.77;;;-5.20;99.90;;;;;;5075950;28;20045;-68
2022/12/18 08:38:11;;;;;;;37.70;21.38;;;-5.20;99.90;;;;;;5062809;28;20048;-71
2022/12/18 08:40:36;;;;;;;40.13;20.52;;;-5.20;99.90;;;;;;5053455;28;20104;-69
2022/12/18 08:45:46;;;;;;;34.08;19.60;;;-5.10;99.90;;;;;;5082422;28;20044;-68
2022/12/18 08:48:12;;;;;;;32.97;18.35;;;-5.00;99.90;;;;;;5046618;28;20045;-68
2022/12/18 08:50:38;;;;;;;32.10;19.10;;;-4.90;99.90;;;;;;5062529;28;20041;-68
2022/12/18 08:53:04;;;;;;;35.65;20.33;;;-4.90;99.90;;;;;;5053743;28;20044;-69
2022/12/18 08:55:29;;;;;;;31.10;17.33;;;-4.80;99.90;;;;;;5058050;28;20041;-69
2022/12/18 08:57:55;;;;;;;27.88;17.50;;;-4.80;99.90;;;;;;5057818;28;20036;-68
2022/12/18 09:00:21;;;;;;;32.03;20.23;;;-4.70;99.90;;;;;;5064411;28;20052;-69
2022/12/18 09:02:46;;;;;;;27.25;17.85;;;-4.70;99.90;;;;;;5062894;28;20047;-67
2022/12/18 09:05:12;;;;;;;25.52;16.40;;;-4.70;99.90;;;;;;5067662;28;20060;-68
2022/12/18 09:07:38;;;;;;;26.85;15.68;;;-4.60;99.90;;;;;;5064350;28;20064;-69
2022/12/18 09:10:04;;;;;;;28.10;16.70;;;-4.60;99.90;;;;;;5063143;28;20049;-70
2022/12/18 09:12:30;;;;;;;27.58;16.23;;;-4.50;99.90;;;;;;5066059;28;20036;-69
2022/12/18 09:14:56;;;;;;;26.90;15.80;;;-4.50;99.90;;;;;;5063438;28;20063;-69
2022/12/18 09:17:22;;;;;;;26.30;15.07;;;-4.40;99.90;;;;;;5060168;28;20546;-69
2022/12/18 09:19:48;;;;;;;30.02;19.38;;;-4.30;99.90;;;;;;5050608;28;20064;-66
2022/12/18 09:22:13;;;;;;;29.70;18.42;;;-4.30;99.90;;;;;;5057712;28;20055;-66
2022/12/18 09:24:39;;;;;;;31.20;17.60;;;-4.20;99.90;;;;;;5063756;28;20578;-66
2022/12/18 09:27:05;;;;;;;32.58;17.92;;;-4.10;99.90;;;;;;5061414;28;20074;-66
2022/12/18 09:29:30;;;;;;;26.65;16.27;;;-4.10;99.90;;;;;;5040383;28;20041;-68
2022/12/18 09:31:56;;;;;;;26.80;16.52;;;-4.10;99.90;;;;;;5028508;28;20044;-67
2022/12/18 09:34:22;;;;;;;24.75;15.15;;;-4.00;99.90;;;;;;5045539;28;20528;-66
2022/12/18 09:36:48;;;;;;;25.38;15.38;;;-3.90;99.90;;;;;;5047562;28;20052;-66
2022/12/18 09:39:14;;;;;;;24.65;15.75;;;-3.80;99.90;;;;;;5063763;28;20051;-66
2022/12/18 09:41:45;;;;;;;26.45;15.25;;;-3.80;99.90;;;;;;5043344;28;20592;-66
2022/12/18 09:44:20;;;;;;;24.58;14.90;;;-3.70;99.90;;;;;;5051715;28;20505;-66
2022/12/18 09:47:18;;;;;;;21.27;13.05;;;-3.60;99.90;;;;;;5063293;28;20040;-66
2022/12/18 09:49:46;;;;;;;23.88;13.40;;;-3.50;99.90;;;;;;5052159;28;20557;-66
2022/12/18 09:52:19;;;;;;;24.75;14.95;;;-3.50;99.90;;;;;;5043185;28;20089;-66
2022/12/18 09:55:10;;;;;;;25.00;15.68;;;-3.40;99.90;;;;;;5053241;28;20116;-66
2022/12/18 09:57:42;;;;;;;27.95;18.05;;;-3.30;99.90;;;;;;5060829;28;20055;-66
2022/12/18 10:00:18;;;;;;;26.70;15.88;;;-3.20;99.90;;;;;;5049884;28;20040;-66
2022/12/18 10:02:43;;;;;;;26.45;16.02;;;-3.20;99.90;;;;;;5043126;28;20068;-66
2022/12/18 10:05:49;;;;;;;22.45;13.80;;;-3.10;99.90;;;;;;5059219;28;20102;-66
2022/12/18 10:08:39;;;;;;;25.05;14.95;;;-3.00;99.90;;;;;;5062587;28;20048;-67
2022/12/18 10:11:39;;;;;;;20.90;12.98;;;-2.90;99.90;;;;;;5065041;28;20053;-67
2022/12/18 10:14:28;;;;;;;14.30;10.48;;;-2.80;99.90;;;;;;5052564;28;20059;-67
2022/12/18 10:17:22;;;;;;;22.02;13.88;;;-2.70;99.90;;;;;;5034351;28;20064;-66
2022/12/18 10:19:56;;;;;;;23.95;13.13;;;-2.60;99.90;;;;;;5051102;28;20044;-66
2022/12/18 10:22:25;;;;;;;17.15;11.35;;;-2.50;99.90;;;;;;5034804;28;20076;-66
2022/12/18 10:25:09;;;;;;;19.92;12.85;;;-2.50;99.90;;;;;;5068543;28;20048;-67
2022/12/18 10:27:35;;;;;;;16.73;11.55;;;-2.50;99.90;;;;;;5035389;28;20049;-68
2022/12/18 10:30:07;;;;;;;17.88;12.20;;;-2.50;99.90;;;;;;5014177;28;20061;-67
2022/12/18 10:32:33;;;;;;;17.52;12.70;;;-2.50;99.90;;;;;;5045660;28;20036;-69
2022/12/18 10:34:59;;;;;;;18.63;12.38;;;-2.50;99.90;;;;;;5058440;28;20094;-70
2022/12/18 10:37:27;;;;;;;17.73;11.57;;;-2.50;99.90;;;;;;5047123;28;20048;-68
2022/12/18 10:40:14;;;;;;;19.42;11.35;;;-2.50;99.90;;;;;;5052021;28;20056;-71
2022/12/18 10:42:41;;;;;;;16.70;11.13;;;-2.40;99.90;;;;;;5039027;28;20042;-68
2022/12/18 10:45:17;;;;;;;14.60;10.73;;;-2.40;99.90;;;;;;5049187;28;20036;-68
2022/12/18 10:47:49;;;;;;;15.93;10.05;;;-2.40;99.90;;;;;;5041324;28;20056;-73
2022/12/18 10:50:36;;;;;;;16.27;10.52;;;-2.40;99.90;;;;;;5056983;28;20079;-67
2022/12/18 10:53:04;;;;;;;17.67;12.60;;;-2.30;99.90;;;;;;5047619;28;20066;-68
2022/12/18 10:55:38;;;;;;;18.13;12.38;;;-2.30;99.90;;;;;;5072056;28;20048;-68
2022/12/18 10:58:35;;;;;;;19.27;11.68;;;-2.20;99.90;;;;;;5049655;28;20075;-68
2022/12/18 11:01:05;;;;;;;17.20;10.57;;;-2.20;99.90;;;;;;5060763;28;20592;-68
2022/12/18 11:03:40;;;;;;;14.50;10.05;;;-2.20;99.90;;;;;;5046584;28;20052;-68
2022/12/18 11:06:14;;;;;;;18.73;11.50;;;-2.20;99.90;;;;;;5048059;28;20138;-67
2022/12/18 11:08:42;;;;;;;17.38;10.55;;;-2.20;99.90;;;;;;5030320;28;20045;-68
2022/12/18 11:11:21;;;;;;;16.98;11.13;;;-2.10;99.90;;;;;;5049408;28;20076;-67
2022/12/18 11:14:15;;;;;;;15.68;11.15;;;-2.10;99.90;;;;;;5060652;28;20363;-69
2022/12/18 11:16:46;;;;;;;19.45;12.55;;;-2.00;99.90;;;;;;5036957;28;20045;-67
2022/12/18 11:19:32;;;;;;;17.70;11.73;;;-2.00;99.90;;;;;;5052464;28;20527;-65
2022/12/18 11:21:59;;;;;;;16.17;10.40;;;-2.00;99.90;;;;;;5041656;28;20139;-65
2022/12/18 11:24:33;;;;;;;14.77;9.98;;;-1.90;99.90;;;;;;5042810;28;20059;-67
2022/12/18 11:27:02;;;;;;;15.05;9.52;;;-1.90;99.90;;;;;;5044763;28;20056;-67
2022/12/18 11:29:37;;;;;;;15.85;9.63;;;-1.80;99.90;;;;;;5028263;28;20134;-67
2022/12/18 11:32:35;;;;;;;15.60;9.00;;;-1.80;99.90;;;;;;5043526;28;20104;-66
2022/12/18 11:35:14;;;;;;;15.07;9.23;;;-1.80;99.90;;;;;;5047944;28;20052;-68
2022/12/18 11:37:44;;;;;;;10.95;7.50;;;-1.70;99.90;;;;;;5058970;28;20053;-68
2022/12/18 11:40:22;;;;;;;13.23;8.75;;;-1.70;99.90;;;;;;5069972;28;20051;-68
2022/12/18 11:43:12;;;;;;;13.20;7.85;;;-1.70;99.90;;;;;;5046395;28;20106;-67
2022/12/18 11:45:52;;;;;;;14.50;8.38;;;-1.60;99.90;;;;;;5051318;28;20373;-67
2022/12/18 11:48:21;;;;;;;;;;;-1.60;99.90;;;;;;5036492;28;20053;-67
2022/12/18 11:50:56;;;;;;;12.15;8.90;;;-1.50;99.90;;;;;;5053171;28;19931;-67
2022/12/18 11:53:23;;;;;;;13.73;8.05;;;-1.50;99.90;;;;;;5043674;28;20052;-66
2022/12/18 11:56:17;;;;;;;15.30;9.07;;;-1.50;99.90;;;;;;5058289;28;20052;-67
2022/12/18 11:58:48;;;;;;;15.25;9.93;;;-1.50;99.90;;;;;;5025359;28;20057;-67
2022/12/18 12:01:17;;;;;;;16.80;9.75;;;-1.40;99.90;;;;;;5069130;28;20048;-67
2022/12/18 12:03:49;;;;;;;12.52;8.95;;;-1.40;99.90;;;;;;5064175;28;20101;-67
2022/12/18 12:07:02;;;;;;;11.60;8.50;;;-1.40;99.90;;;;;;5045744;28;20511;-67
2022/12/18 12:09:51;;;;;;;11.60;8.20;;;-1.40;99.90;;;;;;4992953;28;20072;-66
2022/12/18 12:12:30;;;;;;;14.65;8.90;;;-1.30;99.90;;;;;;4986529;28;20054;-73
2022/12/18 12:14:59;;;;;;;16.00;8.55;;;-1.30;99.90;;;;;;4990364;28;20202;-72
2022/12/18 12:17:49;;;;;;;10.45;7.82;;;-1.30;99.90;;;;;;4967728;28;20053;-73
2022/12/18 12:20:56;;;;;;;12.77;9.15;;;-1.20;99.90;;;;;;4991294;28;20196;-75
2022/12/18 12:23:40;;;;;;;14.43;8.23;;;-1.20;99.90;;;;;;4930632;29;20051;-74
2022/12/18 12:26:15;;;;;;;12.95;8.95;;;-1.20;99.90;;;;;;4947165;29;20428;-74
2022/12/18 12:29:05;;;;;;;12.50;8.73;;;-1.20;99.90;;;;;;4945976;29;20047;-74
2022/12/18 12:31:43;;;;;;;15.55;9.95;;;-1.10;99.90;;;;;;4957196;28;20074;-74
2022/12/18 12:34:26;;;;;;;14.73;9.00;;;-1.10;99.90;;;;;;4951741;29;20106;-74
2022/12/18 12:37:30;;;;;;;17.40;8.63;;;-1.10;99.90;;;;;;4961814;28;20527;-68
2022/12/18 12:39:56;;;;;;;15.98;10.13;;;-1.10;99.90;;;;;;4886082;29;20063;-78
2022/12/18 12:45:40;;;;;;;13.53;8.57;;;-1.00;99.90;;;;;;4909381;29;20517;-68
2022/12/18 12:48:15;;;;;;;13.52;9.38;;;-1.00;99.90;;;;;;4908798;29;20058;-67
2022/12/18 12:50:41;;;;;;;12.40;8.25;;;-1.00;99.90;;;;;;4907990;29;20572;-69
2022/12/18 12:53:14;;;;;;;12.75;8.07;;;-0.90;99.90;;;;;;4909005;29;20084;-69